LSZL

Locarno Airport

Locarno, Switzerland
TAF LSZL 260525Z 2606/2615 VRB03KT 9999 FEW055 TEMPO 2606/2615 CAVOK PROB30 2611/2615 27010KT
Issued Valid From Valid To
Apr-26 @ 05:25 UTC
(29 minutes ago)
Apr-26 @ 06:00 UTC
(in 6 minutes)
Apr-26 @ 15:00 UTC
(in 9 hours)
Apr-26 @ 06:00 to Apr-26 @ 15:00
TAF LSZL 260525Z 2606/2615 VRB03KT 9999 FEW055
Wind Visibility Clouds
Variable at 3 knots 10,000+ meters
  • Few at 5,500' AGL
Temporary Apr-26 @ 06:00 to Apr-26 @ 15:00
TEMPO 2606/2615 CAVOK
Visibility Clouds Conditions
10,000+ meters
  • No significant clouds
Probable  (Probability 30%) Apr-26 @ 11:00 to Apr-26 @ 15:00
PROB30 2611/2615 27010KT
Wind
270° at 10 knots
TAF LSZL 260525Z 2606/2615 VRB03KT 9999 FEW055 TEMPO 2606/2615 CAVOK PROB30 2611/2615 27010KT
Issued Apr-26 @ 05:25 UTC
(29 minutes ago)
Valid From Apr-26 @ 06:00 UTC
(in 6 minutes)
Valid To Apr-26 @ 15:00 UTC
(in 9 hours)
Apr-26 @ 06:00 - Apr-26 @ 15:00
Wind Visibility
Variable at 3 knots 10,000+ meters
Clouds
  • Few at 5,500' AGL
Temporary Apr-26 @ 06:00 - Apr-26 @ 15:00
Clouds
  • No significant clouds
Conditions
Probability 30% Probable Apr-26 @ 11:00 - Apr-26 @ 15:00
Wind
270° at 10 knots